createdAt,value
2018-10-18T00:02:23.665Z,46.10
2018-10-18T00:04:50.000Z,46.00
2018-10-18T00:07:16.337Z,46.10
2018-10-18T00:09:42.555Z,46.10
2018-10-18T00:12:08.949Z,46.10
2018-10-18T00:14:36.020Z,46.00
2018-10-18T00:17:03.160Z,46.00
2018-10-18T00:19:29.527Z,46.00
2018-10-18T00:21:55.764Z,46.00
2018-10-18T00:24:22.092Z,46.00
2018-10-18T00:26:48.759Z,46.00
2018-10-18T00:29:15.170Z,46.00
2018-10-18T00:31:41.940Z,46.00
2018-10-18T00:34:08.442Z,46.00
2018-10-18T00:36:34.783Z,46.10
2018-10-18T00:39:01.112Z,46.00
2018-10-18T00:41:27.264Z,46.10
2018-10-18T00:43:53.620Z,46.00
2018-10-18T00:46:19.933Z,46.00
2018-10-18T00:48:46.211Z,46.00
2018-10-18T00:51:12.553Z,46.70
2018-10-18T00:53:38.806Z,46.00
2018-10-18T00:56:05.188Z,46.10
2018-10-18T00:58:31.595Z,46.00
2018-10-18T01:00:58.159Z,46.00
2018-10-18T01:03:25.239Z,46.00
2018-10-18T01:05:52.912Z,46.10
2018-10-18T01:08:20.010Z,46.10
2018-10-18T01:10:46.158Z,46.70
2018-10-18T01:13:16.151Z,46.00
2018-10-18T01:18:15.135Z,45.90
2018-10-18T01:20:41.439Z,45.90
2018-10-18T01:23:08.033Z,45.90
2018-10-18T01:25:34.288Z,45.90
2018-10-18T01:28:00.569Z,46.00
2018-10-18T01:30:26.710Z,46.00
2018-10-18T01:32:52.980Z,45.90
2018-10-18T01:35:19.285Z,46.00
2018-10-18T01:37:45.576Z,46.00
2018-10-18T01:40:14.224Z,46.00
2018-10-18T01:42:40.452Z,45.90
2018-10-18T01:45:06.797Z,46.00
2018-10-18T01:47:32.941Z,45.90
2018-10-18T01:50:02.274Z,45.90
2018-10-18T01:52:29.484Z,45.90
2018-10-18T01:54:56.046Z,45.90
2018-10-18T01:57:22.329Z,45.90
2018-10-18T01:59:49.268Z,46.70
2018-10-18T02:02:20.275Z,45.90
2018-10-18T02:04:49.298Z,45.90
2018-10-18T02:07:16.361Z,45.90
2018-10-18T02:09:42.590Z,45.90
2018-10-18T02:12:09.036Z,45.90
2018-10-18T02:14:36.180Z,45.90
2018-10-18T02:17:08.534Z,45.90
2018-10-18T02:19:35.459Z,45.90
2018-10-18T02:22:02.709Z,45.90
2018-10-18T02:24:30.534Z,45.90
2018-10-18T02:26:56.862Z,45.90
2018-10-18T02:29:23.173Z,45.90
2018-10-18T02:31:49.562Z,45.90
2018-10-18T02:34:15.713Z,45.90
2018-10-18T02:36:44.364Z,45.90
2018-10-18T02:39:10.545Z,45.90
2018-10-18T02:41:37.121Z,45.90
2018-10-18T02:44:03.271Z,45.90
2018-10-18T02:46:29.578Z,45.90
2018-10-18T02:48:55.740Z,45.90
2018-10-18T02:51:21.879Z,45.90
2018-10-18T02:53:49.059Z,45.90
2018-10-18T02:56:15.398Z,45.90
2018-10-18T02:58:41.608Z,45.90
2018-10-18T03:01:08.473Z,45.90
2018-10-18T03:03:34.619Z,45.90
2018-10-18T03:06:00.937Z,45.90
2018-10-18T03:08:27.136Z,45.90
2018-10-18T03:10:53.275Z,45.90
2018-10-18T03:13:19.508Z,45.90
2018-10-18T03:15:45.697Z,45.90
2018-10-18T03:18:13.176Z,45.90
2018-10-18T03:20:39.632Z,45.90
2018-10-18T03:23:05.845Z,45.90
2018-10-18T03:25:32.974Z,45.90
2018-10-18T03:28:00.047Z,46.00
2018-10-18T03:30:26.371Z,45.90
2018-10-18T03:32:52.857Z,45.90
2018-10-18T03:35:19.100Z,45.90
2018-10-18T03:37:46.589Z,45.90
2018-10-18T03:40:12.939Z,45.90
2018-10-18T03:42:44.397Z,46.00
2018-10-18T03:45:10.786Z,45.90
2018-10-18T03:47:37.023Z,45.90
2018-10-18T03:50:03.929Z,46.00
2018-10-18T03:52:30.228Z,46.00
2018-10-18T03:54:56.392Z,46.00
2018-10-18T03:57:22.571Z,46.00
2018-10-18T03:59:48.984Z,46.00
2018-10-18T04:02:16.777Z,46.00
2018-10-18T04:04:43.002Z,46.10
2018-10-18T04:07:09.223Z,46.00
2018-10-18T04:09:36.236Z,46.00
2018-10-18T04:12:08.509Z,45.90
2018-10-18T04:14:34.882Z,46.00
2018-10-18T04:17:01.072Z,46.00
2018-10-18T04:19:27.545Z,46.00
2018-10-18T04:21:53.728Z,46.00
2018-10-18T04:24:20.104Z,46.10
2018-10-18T04:26:46.432Z,46.00
2018-10-18T04:29:12.815Z,46.00
2018-10-18T04:31:38.991Z,46.00
2018-10-18T04:34:05.160Z,46.00
2018-10-18T04:36:31.310Z,46.00
2018-10-18T04:38:57.485Z,46.00
2018-10-18T04:41:23.805Z,46.00
2018-10-18T04:43:49.971Z,46.10
2018-10-18T04:46:16.830Z,46.10
2018-10-18T04:48:44.447Z,46.00
2018-10-18T04:51:10.689Z,46.00
2018-10-18T04:53:37.063Z,46.00
2018-10-18T04:56:03.428Z,46.00
2018-10-18T04:58:29.663Z,46.00
2018-10-18T05:00:55.887Z,46.00
2018-10-18T05:03:22.351Z,46.00
2018-10-18T05:05:51.320Z,46.00
2018-10-18T05:08:17.653Z,46.10
2018-10-18T05:10:43.881Z,46.10
2018-10-18T05:13:10.115Z,46.10
2018-10-18T05:15:36.550Z,46.10
2018-10-18T05:18:02.955Z,46.10
2018-10-18T05:20:29.963Z,46.10
2018-10-18T05:22:56.357Z,46.10
2018-10-18T05:25:22.776Z,46.10
2018-10-18T05:27:49.236Z,46.10
2018-10-18T05:30:15.783Z,46.10
2018-10-18T05:32:42.444Z,46.10
2018-10-18T05:35:08.718Z,46.10
2018-10-18T05:37:35.897Z,46.10
2018-10-18T05:40:03.717Z,46.10
2018-10-18T05:42:32.461Z,46.10
2018-10-18T05:44:58.747Z,46.10
2018-10-18T05:47:25.713Z,46.20
2018-10-18T05:49:52.149Z,46.20
2018-10-18T05:52:18.484Z,46.10
2018-10-18T05:54:44.768Z,46.10
2018-10-18T05:57:14.372Z,46.20
2018-10-18T05:59:40.584Z,46.20
2018-10-18T06:02:08.404Z,46.20
2018-10-18T06:04:35.359Z,46.20
2018-10-18T06:07:02.568Z,46.20
2018-10-18T06:09:32.369Z,46.10
2018-10-18T06:11:58.785Z,46.10
2018-10-18T06:14:24.974Z,46.20
2018-10-18T06:16:51.888Z,46.20
2018-10-18T06:19:22.651Z,46.10
2018-10-18T06:21:48.887Z,46.10
2018-10-18T06:26:46.744Z,46.20
2018-10-18T06:29:14.510Z,46.20
2018-10-18T06:31:40.893Z,46.20
2018-10-18T06:34:07.085Z,46.10
2018-10-18T06:36:34.045Z,46.20
2018-10-18T06:39:02.609Z,46.20
2018-10-18T06:41:29.066Z,46.20
2018-10-18T06:43:55.288Z,46.20
2018-10-18T06:46:21.512Z,46.10
2018-10-18T06:48:49.635Z,46.20
2018-10-18T06:51:16.152Z,46.20
2018-10-18T06:53:42.306Z,46.20
2018-10-18T06:56:08.516Z,46.20
2018-10-18T06:58:34.844Z,46.20
2018-10-18T07:01:01.044Z,46.20
2018-10-18T07:03:27.377Z,46.20
2018-10-18T07:05:53.535Z,46.10
2018-10-18T07:08:19.936Z,46.20
2018-10-18T07:10:46.097Z,46.20
2018-10-18T07:13:13.203Z,46.10
2018-10-18T07:15:39.579Z,46.20
2018-10-18T07:18:05.831Z,46.20
2018-10-18T07:20:32.201Z,46.20
2018-10-18T07:22:59.288Z,46.20
2018-10-18T07:25:26.145Z,46.20
2018-10-18T07:27:53.364Z,46.30
2018-10-18T07:30:19.802Z,46.30
2018-10-18T07:32:47.123Z,47.10
2018-10-18T07:35:14.181Z,48.70
2018-10-18T07:37:40.718Z,48.60
2018-10-18T07:40:07.060Z,49.10
2018-10-18T07:42:39.844Z,49.10
2018-10-18T07:45:05.993Z,49.00
2018-10-18T07:47:32.396Z,48.90
2018-10-18T07:49:58.943Z,49.20
2018-10-18T07:52:26.614Z,48.40
2018-10-18T07:54:52.756Z,48.30
2018-10-18T07:57:18.934Z,47.90
2018-10-18T07:59:46.220Z,47.80
2018-10-18T08:02:14.435Z,47.80
2018-10-18T08:04:40.724Z,47.60
2018-10-18T08:07:07.197Z,47.50
2018-10-18T08:09:36.046Z,47.40
2018-10-18T08:12:02.520Z,47.40
2018-10-18T08:14:28.707Z,47.30
2018-10-18T08:16:54.894Z,47.30
2018-10-18T08:19:22.121Z,47.50
2018-10-18T08:21:48.268Z,47.20
2018-10-18T08:24:14.621Z,47.20
2018-10-18T08:26:41.633Z,47.10
2018-10-18T08:29:08.027Z,47.10
2018-10-18T08:31:35.191Z,47.10
2018-10-18T08:34:01.899Z,47.10
2018-10-18T08:36:29.107Z,47.10
2018-10-18T08:38:55.497Z,47.10
2018-10-18T08:41:26.650Z,47.10
2018-10-18T08:43:52.999Z,47.00
2018-10-18T08:46:20.104Z,47.00
2018-10-18T08:51:19.896Z,47.00
2018-10-18T08:53:46.083Z,47.00
2018-10-18T08:56:12.416Z,47.00
2018-10-18T08:58:39.332Z,47.00
2018-10-18T09:01:05.779Z,47.00
2018-10-18T09:03:32.948Z,46.90
2018-10-18T09:05:59.620Z,46.90
2018-10-18T09:08:25.693Z,46.90
2018-10-18T09:10:56.551Z,46.90
2018-10-18T09:13:22.893Z,46.90
2018-10-18T09:15:49.048Z,46.90
2018-10-18T09:18:15.373Z,46.90
2018-10-18T09:20:41.598Z,46.90
2018-10-18T09:23:07.963Z,46.90
2018-10-18T09:25:34.220Z,46.90
2018-10-18T09:28:00.453Z,46.80
2018-10-18T09:30:26.841Z,46.70
2018-10-18T09:32:53.332Z,46.90
2018-10-18T09:35:20.671Z,46.90
2018-10-18T09:37:47.631Z,46.80
2018-10-18T09:40:13.976Z,46.70
2018-10-18T09:42:40.146Z,46.80
2018-10-18T09:45:11.276Z,46.70
2018-10-18T09:47:37.540Z,46.70
2018-10-18T09:50:04.613Z,46.70
2018-10-18T09:52:30.969Z,46.70
2018-10-18T09:54:57.695Z,46.70
2018-10-18T09:57:25.667Z,46.80
2018-10-18T09:59:51.931Z,46.70
2018-10-18T10:02:18.240Z,46.70
2018-10-18T10:04:44.440Z,46.70
2018-10-18T10:07:10.735Z,46.60
2018-10-18T10:09:37.940Z,46.60
2018-10-18T10:12:04.148Z,46.60
2018-10-18T10:14:30.661Z,46.60
2018-10-18T10:16:58.105Z,46.50
2018-10-18T10:19:24.351Z,46.50
2018-10-18T10:21:51.409Z,46.50
2018-10-18T10:24:18.640Z,46.50
2018-10-18T10:26:45.432Z,46.50
2018-10-18T10:29:11.779Z,46.50
2018-10-18T10:31:38.821Z,46.50
2018-10-18T10:34:05.134Z,46.50
2018-10-18T10:36:32.267Z,46.40
2018-10-18T10:39:00.095Z,46.40
2018-10-18T10:41:26.470Z,46.40
2018-10-18T10:43:52.617Z,46.40
2018-10-18T10:46:19.084Z,46.40
2018-10-18T10:48:45.772Z,46.40
2018-10-18T10:51:12.331Z,46.40
2018-10-18T10:53:38.572Z,46.40
2018-10-18T10:56:04.791Z,46.40
2018-10-18T10:58:32.356Z,46.30
2018-10-18T11:00:58.640Z,46.30
2018-10-18T11:03:25.745Z,46.30
2018-10-18T11:05:52.508Z,46.30
2018-10-18T11:08:18.652Z,46.30
2018-10-18T11:10:45.567Z,46.30
2018-10-18T11:13:11.778Z,46.30
2018-10-18T11:15:38.193Z,46.30
2018-10-18T11:18:04.584Z,46.30
2018-10-18T11:20:31.107Z,46.30
2018-10-18T11:22:57.408Z,46.30
2018-10-18T11:25:23.583Z,46.20
2018-10-18T11:27:49.837Z,46.20
2018-10-18T11:30:16.499Z,46.20
2018-10-18T11:32:42.752Z,46.20
2018-10-18T11:35:08.923Z,46.20
2018-10-18T11:37:37.258Z,46.20
2018-10-18T11:40:03.574Z,46.20
2018-10-18T11:42:29.820Z,46.20
2018-10-18T11:44:55.959Z,46.20
2018-10-18T11:47:22.125Z,46.20
2018-10-18T11:49:48.272Z,46.20
2018-10-18T11:52:14.420Z,46.20
2018-10-18T11:54:41.136Z,46.20
2018-10-18T11:57:07.912Z,46.20
2018-10-18T11:59:34.916Z,46.20
2018-10-18T12:02:01.082Z,46.20
2018-10-18T12:04:27.780Z,46.20
2018-10-18T12:06:54.302Z,46.20
2018-10-18T12:09:21.363Z,46.20
2018-10-18T12:11:47.896Z,46.20
2018-10-18T12:14:15.306Z,46.20
2018-10-18T12:16:41.637Z,46.20
2018-10-18T12:19:09.415Z,46.20
2018-10-18T12:21:35.788Z,46.10
2018-10-18T12:24:02.535Z,46.20
2018-10-18T12:26:28.756Z,46.10
2018-10-18T12:28:54.928Z,46.10
2018-10-18T12:31:21.372Z,46.10
2018-10-18T12:33:47.957Z,46.10
2018-10-18T12:36:14.804Z,46.10
2018-10-18T12:38:41.172Z,46.10
2018-10-18T12:41:07.717Z,46.10
2018-10-18T12:43:34.930Z,46.10
2018-10-18T12:46:01.100Z,46.00
2018-10-18T12:48:27.314Z,46.10
2018-10-18T12:50:53.608Z,46.10
2018-10-18T12:53:19.863Z,46.10
2018-10-18T12:55:46.739Z,46.10
2018-10-18T12:58:14.776Z,46.10
2018-10-18T13:00:40.992Z,46.10
2018-10-18T13:03:07.151Z,46.80
2018-10-18T13:05:33.339Z,46.10
2018-10-18T13:07:59.891Z,46.10
2018-10-18T13:10:26.953Z,46.20
2018-10-18T13:12:55.059Z,46.10
2018-10-18T13:15:26.764Z,46.10
2018-10-18T13:17:53.073Z,46.10
2018-10-18T13:20:20.240Z,46.10
2018-10-18T13:22:46.386Z,46.10
2018-10-18T13:25:12.726Z,46.10
2018-10-18T13:27:44.657Z,46.20
2018-10-18T13:30:11.111Z,46.20
2018-10-18T13:32:38.417Z,46.20
2018-10-18T13:35:04.556Z,46.20
2018-10-18T13:37:31.588Z,46.10
2018-10-18T13:39:58.056Z,46.10
2018-10-18T13:42:24.657Z,46.10
2018-10-18T13:44:50.888Z,46.10
2018-10-18T13:47:17.384Z,46.10
2018-10-18T13:49:43.688Z,46.10
2018-10-18T13:52:10.023Z,46.20
2018-10-18T13:54:36.169Z,46.10
2018-10-18T13:57:02.321Z,46.10
2018-10-18T13:59:28.958Z,46.10
2018-10-18T14:01:55.578Z,46.20
2018-10-18T14:04:22.628Z,46.10
2018-10-18T14:06:48.961Z,46.10
2018-10-18T14:09:15.291Z,46.20
2018-10-18T14:11:41.587Z,46.10
2018-10-18T14:14:08.894Z,46.10
2018-10-18T14:16:35.367Z,46.10
2018-10-18T14:19:01.732Z,46.10
2018-10-18T14:21:27.942Z,46.10
2018-10-18T14:23:54.182Z,46.10
2018-10-18T14:26:20.546Z,46.10
2018-10-18T14:28:46.890Z,46.10
2018-10-18T14:31:13.283Z,46.00
2018-10-18T14:33:39.448Z,46.00
2018-10-18T14:36:05.620Z,46.00
2018-10-18T14:38:31.877Z,46.00
2018-10-18T14:40:58.233Z,46.00
2018-10-18T14:43:24.747Z,46.00
2018-10-18T14:45:51.266Z,46.00
2018-10-18T14:48:17.487Z,46.00
2018-10-18T14:50:45.265Z,46.00
2018-10-18T14:53:12.537Z,46.10
2018-10-18T14:55:44.688Z,46.10
2018-10-18T14:58:10.891Z,46.00
2018-10-18T15:00:38.767Z,46.00
2018-10-18T15:03:05.098Z,46.10
2018-10-18T15:05:31.448Z,46.10
2018-10-18T15:07:57.741Z,46.10
2018-10-18T15:10:24.093Z,46.10
2018-10-18T15:12:50.444Z,46.20
2018-10-18T15:15:17.567Z,46.30
2018-10-18T15:17:43.719Z,46.30
2018-10-18T15:20:10.090Z,46.30
2018-10-18T15:22:37.249Z,46.40
2018-10-18T15:25:08.763Z,46.40
2018-10-18T15:27:35.988Z,46.30
2018-10-18T15:30:02.241Z,46.30
2018-10-18T15:32:30.014Z,46.30
2018-10-18T15:34:56.471Z,46.40
2018-10-18T15:37:22.687Z,46.50
2018-10-18T15:39:49.647Z,46.50
2018-10-18T15:42:15.824Z,46.50
2018-10-18T15:44:42.002Z,46.50
2018-10-18T15:47:08.349Z,46.50
2018-10-18T15:49:35.383Z,47.30
2018-10-18T15:52:01.992Z,46.50
2018-10-18T15:54:28.431Z,46.50
2018-10-18T15:56:55.566Z,46.50
2018-10-18T15:59:27.009Z,46.50
2018-10-18T16:01:56.944Z,46.50
2018-10-18T16:04:23.167Z,46.50
2018-10-18T16:06:49.309Z,46.50
2018-10-18T16:09:15.589Z,46.50
2018-10-18T16:11:43.144Z,46.50
2018-10-18T16:14:10.753Z,46.50
2018-10-18T16:16:38.222Z,46.50
2018-10-18T16:19:05.875Z,46.50
2018-10-18T16:21:35.023Z,46.50
2018-10-18T16:24:01.936Z,46.50
2018-10-18T16:26:28.425Z,46.60
2018-10-18T16:28:55.580Z,46.60
2018-10-18T16:31:21.732Z,46.60
2018-10-18T16:33:48.048Z,46.70
2018-10-18T16:36:14.371Z,46.60
2018-10-18T16:38:40.651Z,46.70
2018-10-18T16:41:09.002Z,46.70
2018-10-18T16:43:35.323Z,46.70
2018-10-18T16:46:01.712Z,46.70
2018-10-18T16:48:28.064Z,46.70
2018-10-18T16:50:54.333Z,46.80
2018-10-18T16:53:20.824Z,46.80
2018-10-18T16:55:47.157Z,46.80
2018-10-18T16:58:13.401Z,46.80
2018-10-18T17:00:39.716Z,46.70
2018-10-18T17:03:06.057Z,46.80
2018-10-18T17:05:32.680Z,46.80
2018-10-18T17:07:59.479Z,46.70
2018-10-18T17:10:25.877Z,46.90
2018-10-18T17:12:52.193Z,46.90
2018-10-18T17:15:18.350Z,46.90
2018-10-18T17:17:44.641Z,46.90
2018-10-18T17:20:11.249Z,46.80
2018-10-18T17:22:39.097Z,47.00
2018-10-18T17:25:05.296Z,46.80
2018-10-18T17:27:31.694Z,46.90
2018-10-18T17:29:57.902Z,47.00
2018-10-18T17:32:24.387Z,47.00
2018-10-18T17:34:51.570Z,47.00
2018-10-18T17:37:18.915Z,46.90
2018-10-18T17:39:51.910Z,47.00
2018-10-18T17:42:18.502Z,47.00
2018-10-18T17:44:45.647Z,47.60
2018-10-18T17:47:12.758Z,46.90
2018-10-18T17:49:39.065Z,46.90
2018-10-18T17:52:05.465Z,46.90
2018-10-18T17:54:31.928Z,46.90
2018-10-18T17:56:58.245Z,46.90
2018-10-18T17:59:24.412Z,46.90
2018-10-18T18:01:50.729Z,46.90
2018-10-18T18:04:16.964Z,46.90
2018-10-18T18:06:43.411Z,46.90
2018-10-18T18:09:11.558Z,46.90
2018-10-18T18:11:39.360Z,47.00
2018-10-18T18:14:05.671Z,47.00
2018-10-18T18:16:31.920Z,47.00
2018-10-18T18:18:58.109Z,46.90
2018-10-18T18:21:24.267Z,47.00
2018-10-18T18:23:50.574Z,47.00
2018-10-18T18:26:32.333Z,46.90
2018-10-18T18:28:47.412Z,46.90
2018-10-18T18:31:13.590Z,46.90
2018-10-18T18:33:39.994Z,46.90
2018-10-18T18:36:06.202Z,46.90
2018-10-18T18:38:32.930Z,46.90
2018-10-18T18:40:59.378Z,46.90
2018-10-18T18:43:25.704Z,46.90
2018-10-18T18:45:52.782Z,46.90
2018-10-18T18:48:19.127Z,46.90
2018-10-18T18:50:45.274Z,46.90
2018-10-18T18:53:11.692Z,46.90
2018-10-18T18:55:38.068Z,46.90
2018-10-18T18:58:05.026Z,46.90
2018-10-18T19:00:31.293Z,46.80
2018-10-18T19:02:57.611Z,46.90
2018-10-18T19:05:23.936Z,46.90
2018-10-18T19:07:50.095Z,46.80
2018-10-18T19:10:16.257Z,46.80
2018-10-18T19:12:43.932Z,46.80
2018-10-18T19:15:10.235Z,46.80
2018-10-18T19:17:37.324Z,46.80
2018-10-18T19:20:03.490Z,46.80
2018-10-18T19:22:29.738Z,46.80
2018-10-18T19:24:56.083Z,46.80
2018-10-18T19:27:23.183Z,46.70
2018-10-18T19:29:49.383Z,46.70
2018-10-18T19:32:15.717Z,46.70
2018-10-18T19:34:41.893Z,46.70
2018-10-18T19:37:08.167Z,46.70
2018-10-18T19:39:34.502Z,46.70
2018-10-18T19:42:03.499Z,46.70
2018-10-18T19:44:29.823Z,46.70
2018-10-18T19:46:56.739Z,46.70
2018-10-18T19:49:23.090Z,46.80
2018-10-18T19:51:49.239Z,46.70
2018-10-18T19:54:15.383Z,46.60
2018-10-18T19:56:41.584Z,46.60
2018-10-18T19:59:07.949Z,46.60
2018-10-18T20:01:34.969Z,46.70
2018-10-18T20:04:01.834Z,46.70
2018-10-18T20:06:28.981Z,46.60
2018-10-18T20:08:55.288Z,46.60
2018-10-18T20:11:21.576Z,46.60
2018-10-18T20:13:48.337Z,46.60
2018-10-18T20:16:14.896Z,46.60
2018-10-18T20:18:41.106Z,46.60
2018-10-18T20:21:07.717Z,46.60
2018-10-18T20:23:34.200Z,46.60
2018-10-18T20:26:03.330Z,46.60
2018-10-18T20:28:33.562Z,46.60
2018-10-18T20:31:00.361Z,46.60
2018-10-18T20:33:27.425Z,46.60
2018-10-18T20:35:53.740Z,46.60
2018-10-18T20:38:20.245Z,46.50
2018-10-18T20:43:18.791Z,46.60
2018-10-18T20:45:47.214Z,46.60
2018-10-18T20:48:14.419Z,46.60
2018-10-18T20:50:40.871Z,46.50
2018-10-18T20:53:07.144Z,46.50
2018-10-18T20:55:34.501Z,46.60
2018-10-18T20:58:00.856Z,46.60
2018-10-18T21:00:29.800Z,46.50
2018-10-18T21:02:55.984Z,46.50
2018-10-18T21:05:22.212Z,46.50
2018-10-18T21:07:48.615Z,47.10
2018-10-18T21:10:14.974Z,46.50
2018-10-18T21:12:41.316Z,46.40
2018-10-18T21:15:07.613Z,46.50
2018-10-18T21:17:33.960Z,46.50
2018-10-18T21:20:01.101Z,46.50
2018-10-18T21:22:28.099Z,46.40
2018-10-18T21:24:54.249Z,46.30
2018-10-18T21:27:20.884Z,46.40
2018-10-18T21:29:48.663Z,46.30
2018-10-18T21:32:15.029Z,46.30
2018-10-18T21:34:41.779Z,46.40
2018-10-18T21:37:08.102Z,46.40
2018-10-18T21:39:36.991Z,46.30
2018-10-18T21:42:03.151Z,46.30
2018-10-18T21:44:29.464Z,46.30
2018-10-18T21:46:55.845Z,46.30
2018-10-18T21:49:22.113Z,46.20
2018-10-18T21:51:48.613Z,46.20
2018-10-18T21:54:14.956Z,46.30
2018-10-18T21:56:41.873Z,46.20
2018-10-18T21:59:08.620Z,46.20
2018-10-18T22:01:35.816Z,46.30
2018-10-18T22:04:03.113Z,46.10
2018-10-18T22:06:29.256Z,46.20
2018-10-18T22:08:55.580Z,46.20
2018-10-18T22:11:22.167Z,46.20
2018-10-18T22:13:48.389Z,46.20
2018-10-18T22:16:23.084Z,46.20
2018-10-18T22:18:49.708Z,46.10
2018-10-18T22:21:15.950Z,46.20
2018-10-18T22:23:43.163Z,46.20
2018-10-18T22:26:09.375Z,46.00
2018-10-18T22:28:35.553Z,46.20
2018-10-18T22:31:01.793Z,46.00
2018-10-18T22:33:28.069Z,46.10
2018-10-18T22:35:54.387Z,46.10
2018-10-18T22:38:21.460Z,46.00
2018-10-18T22:40:48.066Z,46.00
2018-10-18T22:43:15.127Z,46.10
2018-10-18T22:45:41.273Z,46.00
2018-10-18T22:48:07.643Z,46.00
2018-10-18T22:50:39.244Z,46.00
2018-10-18T22:53:05.572Z,45.90
2018-10-18T22:55:32.723Z,45.90
2018-10-18T22:57:59.162Z,45.90
2018-10-18T23:00:25.692Z,46.60
2018-10-18T23:02:52.034Z,46.00
2018-10-18T23:05:18.539Z,45.80
2018-10-18T23:07:44.796Z,45.80
2018-10-18T23:10:11.143Z,45.90
2018-10-18T23:12:37.685Z,45.80
2018-10-18T23:15:04.514Z,45.80
2018-10-18T23:17:32.678Z,45.80
2018-10-18T23:20:03.008Z,45.80
2018-10-18T23:22:29.362Z,45.80
2018-10-18T23:24:55.758Z,45.80
2018-10-18T23:27:22.428Z,45.80
2018-10-18T23:29:48.659Z,45.70
2018-10-18T23:32:15.631Z,45.70
2018-10-18T23:34:42.122Z,45.70
2018-10-18T23:37:10.317Z,45.60
2018-10-18T23:39:36.622Z,45.70
2018-10-18T23:42:02.999Z,45.60
2018-10-18T23:44:29.305Z,45.60
2018-10-18T23:46:55.870Z,45.60
2018-10-18T23:49:22.365Z,45.60
2018-10-18T23:51:48.710Z,45.70
2018-10-18T23:54:15.783Z,46.30
2018-10-18T23:56:42.024Z,45.50
